Palm Springs, CA

1:07 PM PDT on July 06, 2015 (GMT -0700)
CHINO CANYON | | Change Station
CLOSE
Current Station
Personal Weather Station
Location: Palm Springs, CA
Elevation: 630 ft
Nearby Weather Stations

Elev 630 ft 33.85 °N, 116.55 °W | Updated 1 second ago

Partly Cloudy
Partly Cloudy
104.1 °F
Feels Like 104 °F
N
0.1
Wind Variable Wind from SSW
Gusts 2.3 mph

Today
High -- | Low -- °F
--% Chance of Precip.
Yesterday
High -- | Low -- °F
Precip. -- in
5:41 AM 8:00 PM
Waning Gibbous, 72% visible
Pressure 29.89 in
Visibility 10.0 miles
Clouds Scattered Clouds 12000 ft
Heat Index 104 °F
Dew Point 56 °F
Humidity 21%
Rainfall 0.00 in
Snow Depth Not available.
UV 10 out of 12
Pollen 4.50 out of 12
Air Quality Not available.
Flu Activity Not available.
METAR KPSP 061953Z 12005KT 10SM SCT120 38/11 A2991 RMK AO2 SLP122 T03830106

More Conditions Fewer Conditions

Pressure 29.89 in
Visibility 10.0 miles
Clouds Scattered Clouds 12000 ft
Heat Index 104 °F
Dew Point 56 °F
Humidity 21%
Rainfall 0.00 in
Snow Depth Not available.
UV 10 out of 12
Pollen 4.50 out of 12
Air Quality Not available.
Flu Activity Not available.
METAR KPSP 061953Z 12005KT 10SM SCT120 38/11 A2991 RMK AO2 SLP122 T03830106

More Conditions Fewer Conditions

10-Day Weather Forecast

×

Almanac

Astronomy

Jul. 06, 2015 Rise Set
Actual Time
Civil Twilight
Nautical Twilight
Astronomical Twilight
Moon
Length of Visible Light
Length of Day
Tomorrow will be .
, % of the Moon is Illuminated

Today's Extremes

State Highs State Lows

Community

WunderPhotos

Upload Photos

1,835,625 photos uploaded!

WunderBlogs® & News

Nearby

Air Quality

  Air Quality AQ Index Pollutant
Not available.

Snow Depth

Station Depth Elevation

Earthquake Activity

City Distance Mag. Time & Date
Minimum magnitude displayed is 2.5.

Coastal Water Temperatures

Place Temperature

Stations

Nearby Weather Stations

Station Location Temp. Windchill Dew Point Humidity Wind Precip. Elev Updated Type